sensor_id;sensor_type;location;lat;lon;timestamp;P1;durP1;ratioP1;P2;durP2;ratioP2
69937;SDS011;57248;47.320;15.998;2024-03-07T00:01:54;6.28;;;1.98;;
69937;SDS011;57248;47.320;15.998;2024-03-07T00:04:26;5.32;;;1.80;;
69937;SDS011;57248;47.320;15.998;2024-03-07T00:06:58;2.90;;;0.70;;
69937;SDS011;57248;47.320;15.998;2024-03-07T00:09:37;3.08;;;1.10;;
69937;SDS011;57248;47.320;15.998;2024-03-07T00:12:09;7.47;;;1.90;;
69937;SDS011;57248;47.320;15.998;2024-03-07T00:14:41;8.93;;;1.92;;
69937;SDS011;57248;47.320;15.998;2024-03-07T00:17:13;4.28;;;0.82;;
69937;SDS011;57248;47.320;15.998;2024-03-07T00:19:45;8.87;;;1.27;;
69937;SDS011;57248;47.320;15.998;2024-03-07T00:22:19;8.48;;;1.65;;
69937;SDS011;57248;47.320;15.998;2024-03-07T00:24:52;9.63;;;2.00;;
69937;SDS011;57248;47.320;15.998;2024-03-07T00:27:25;5.72;;;1.58;;
69937;SDS011;57248;47.320;15.998;2024-03-07T00:29:51;4.65;;;1.40;;
69937;SDS011;57248;47.320;15.998;2024-03-07T00:32:25;3.97;;;1.33;;
69937;SDS011;57248;47.320;15.998;2024-03-07T00:35:01;4.38;;;1.73;;
69937;SDS011;57248;47.320;15.998;2024-03-07T00:37:36;4.20;;;1.50;;
69937;SDS011;57248;47.320;15.998;2024-03-07T00:40:09;5.30;;;1.27;;
69937;SDS011;57248;47.320;15.998;2024-03-07T00:42:41;6.78;;;0.93;;
69937;SDS011;57248;47.320;15.998;2024-03-07T00:45:13;5.03;;;0.97;;
69937;SDS011;57248;47.320;15.998;2024-03-07T00:47:39;9.57;;;2.42;;
69937;SDS011;57248;47.320;15.998;2024-03-07T00:50:11;7.93;;;2.50;;
69937;SDS011;57248;47.320;15.998;2024-03-07T00:52:43;5.57;;;1.83;;
69937;SDS011;57248;47.320;15.998;2024-03-07T00:55:16;5.72;;;1.48;;
69937;SDS011;57248;47.320;15.998;2024-03-07T00:57:49;2.22;;;0.73;;
69937;SDS011;57248;47.320;15.998;2024-03-07T01:00:21;3.95;;;1.38;;
69937;SDS011;57248;47.320;15.998;2024-03-07T01:02:54;4.93;;;1.38;;
69937;SDS011;57248;47.320;15.998;2024-03-07T01:05:28;5.37;;;1.97;;
69937;SDS011;57248;47.320;15.998;2024-03-07T01:08:00;7.13;;;1.30;;
69937;SDS011;57248;47.320;15.998;2024-03-07T01:10:32;5.20;;;1.65;;
69937;SDS011;57248;47.320;15.998;2024-03-07T01:13:11;7.40;;;1.58;;
69937;SDS011;57248;47.320;15.998;2024-03-07T01:15:50;5.15;;;1.58;;
69937;SDS011;57248;47.320;15.998;2024-03-07T01:18:16;5.63;;;1.93;;
69937;SDS011;57248;47.320;15.998;2024-03-07T01:20:48;7.55;;;0.70;;
69937;SDS011;57248;47.320;15.998;2024-03-07T01:23:21;7.60;;;1.13;;
69937;SDS011;57248;47.320;15.998;2024-03-07T01:25:55;9.90;;;1.27;;
69937;SDS011;57248;47.320;15.998;2024-03-07T01:28:30;6.57;;;1.63;;
69937;SDS011;57248;47.320;15.998;2024-03-07T01:31:01;5.20;;;1.10;;
69937;SDS011;57248;47.320;15.998;2024-03-07T01:33:35;4.15;;;1.17;;
69937;SDS011;57248;47.320;15.998;2024-03-07T01:36:06;4.83;;;1.47;;
69937;SDS011;57248;47.320;15.998;2024-03-07T01:38:32;1.92;;;0.75;;
69937;SDS011;57248;47.320;15.998;2024-03-07T01:41:04;4.25;;;1.35;;
69937;SDS011;57248;47.320;15.998;2024-03-07T01:43:36;6.30;;;1.60;;
69937;SDS011;57248;47.320;15.998;2024-03-07T01:46:15;4.35;;;1.33;;
69937;SDS011;57248;47.320;15.998;2024-03-07T01:48:47;4.55;;;1.40;;
69937;SDS011;57248;47.320;15.998;2024-03-07T01:51:19;7.35;;;1.83;;
69937;SDS011;57248;47.320;15.998;2024-03-07T01:53:54;6.93;;;2.30;;
69937;SDS011;57248;47.320;15.998;2024-03-07T01:56:26;4.97;;;1.50;;
69937;SDS011;57248;47.320;15.998;2024-03-07T01:58:58;6.88;;;2.20;;
69937;SDS011;57248;47.320;15.998;2024-03-07T02:01:33;4.50;;;1.60;;
69937;SDS011;57248;47.320;15.998;2024-03-07T02:04:07;2.85;;;1.08;;
69937;SDS011;57248;47.320;15.998;2024-03-07T02:06:39;4.75;;;1.35;;
69937;SDS011;57248;47.320;15.998;2024-03-07T02:09:12;3.50;;;1.00;;
69937;SDS011;57248;47.320;15.998;2024-03-07T02:11:51;5.80;;;1.77;;
69937;SDS011;57248;47.320;15.998;2024-03-07T02:14:23;5.43;;;1.40;;
69937;SDS011;57248;47.320;15.998;2024-03-07T02:16:55;4.65;;;1.45;;
69937;SDS011;57248;47.320;15.998;2024-03-07T02:19:27;6.35;;;2.20;;
69937;SDS011;57248;47.320;15.998;2024-03-07T02:22:01;4.80;;;1.93;;
69937;SDS011;57248;47.320;15.998;2024-03-07T02:24:33;4.32;;;1.40;;
69937;SDS011;57248;47.320;15.998;2024-03-07T02:27:05;7.75;;;2.10;;
69937;SDS011;57248;47.320;15.998;2024-03-07T02:29:32;3.35;;;0.93;;
69937;SDS011;57248;47.320;15.998;2024-03-07T02:32:05;4.35;;;1.40;;
69937;SDS011;57248;47.320;15.998;2024-03-07T02:34:36;6.37;;;1.47;;
69937;SDS011;57248;47.320;15.998;2024-03-07T02:37:09;4.72;;;1.27;;
69937;SDS011;57248;47.320;15.998;2024-03-07T02:39:41;6.00;;;1.73;;
69937;SDS011;57248;47.320;15.998;2024-03-07T02:42:13;8.30;;;1.70;;
69937;SDS011;57248;47.320;15.998;2024-03-07T02:44:45;4.95;;;1.55;;
69937;SDS011;57248;47.320;15.998;2024-03-07T02:47:18;3.30;;;1.40;;
69937;SDS011;57248;47.320;15.998;2024-03-07T02:49:43;6.13;;;2.08;;
69937;SDS011;57248;47.320;15.998;2024-03-07T02:52:16;7.38;;;2.13;;
69937;SDS011;57248;47.320;15.998;2024-03-07T02:54:48;6.13;;;1.45;;
69937;SDS011;57248;47.320;15.998;2024-03-07T02:57:20;4.72;;;1.13;;
69937;SDS011;57248;47.320;15.998;2024-03-07T02:59:52;2.20;;;1.00;;
69937;SDS011;57248;47.320;15.998;2024-03-07T03:02:25;5.93;;;1.15;;
69937;SDS011;57248;47.320;15.998;2024-03-07T03:04:56;5.47;;;1.67;;
69937;SDS011;57248;47.320;15.998;2024-03-07T03:07:29;4.25;;;1.70;;
69937;SDS011;57248;47.320;15.998;2024-03-07T03:10:09;13.95;;;2.35;;
69937;SDS011;57248;47.320;15.998;2024-03-07T03:12:42;6.67;;;1.80;;
69937;SDS011;57248;47.320;15.998;2024-03-07T03:15:15;4.20;;;1.33;;
69937;SDS011;57248;47.320;15.998;2024-03-07T03:17:49;6.15;;;1.55;;
69937;SDS011;57248;47.320;15.998;2024-03-07T03:20:20;3.63;;;1.67;;
69937;SDS011;57248;47.320;15.998;2024-03-07T03:23:05;4.43;;;1.83;;
69937;SDS011;57248;47.320;15.998;2024-03-07T03:25:37;5.90;;;1.90;;
69937;SDS011;57248;47.320;15.998;2024-03-07T03:28:09;5.35;;;1.42;;
69937;SDS011;57248;47.320;15.998;2024-03-07T03:30:41;4.00;;;0.73;;
69937;SDS011;57248;47.320;15.998;2024-03-07T03:33:14;3.72;;;1.02;;
69937;SDS011;57248;47.320;15.998;2024-03-07T03:35:40;6.53;;;1.47;;
69937;SDS011;57248;47.320;15.998;2024-03-07T03:38:12;3.05;;;1.10;;
69937;SDS011;57248;47.320;15.998;2024-03-07T03:40:44;5.80;;;0.75;;
69937;SDS011;57248;47.320;15.998;2024-03-07T03:43:10;7.17;;;0.77;;
69937;SDS011;57248;47.320;15.998;2024-03-07T03:45:42;4.22;;;0.90;;
69937;SDS011;57248;47.320;15.998;2024-03-07T03:48:14;4.82;;;1.02;;
69937;SDS011;57248;47.320;15.998;2024-03-07T03:50:46;2.58;;;0.75;;
69937;SDS011;57248;47.320;15.998;2024-03-07T03:53:18;4.87;;;1.10;;
69937;SDS011;57248;47.320;15.998;2024-03-07T03:55:50;5.80;;;1.23;;
69937;SDS011;57248;47.320;15.998;2024-03-07T03:58:22;4.43;;;0.80;;
69937;SDS011;57248;47.320;15.998;2024-03-07T04:00:54;3.92;;;1.35;;
69937;SDS011;57248;47.320;15.998;2024-03-07T04:03:20;3.63;;;1.00;;
69937;SDS011;57248;47.320;15.998;2024-03-07T04:05:52;4.00;;;1.05;;
69937;SDS011;57248;47.320;15.998;2024-03-07T04:08:26;4.15;;;0.88;;
69937;SDS011;57248;47.320;15.998;2024-03-07T04:10:58;2.73;;;0.50;;
69937;SDS011;57248;47.320;15.998;2024-03-07T04:13:41;2.38;;;0.90;;
69937;SDS011;57248;47.320;15.998;2024-03-07T04:16:07;5.25;;;0.90;;
69937;SDS011;57248;47.320;15.998;2024-03-07T04:18:39;2.75;;;0.43;;
69937;SDS011;57248;47.320;15.998;2024-03-07T04:21:12;3.42;;;0.80;;
69937;SDS011;57248;47.320;15.998;2024-03-07T04:23:43;3.00;;;0.80;;
69937;SDS011;57248;47.320;15.998;2024-03-07T04:26:17;1.90;;;0.57;;
69937;SDS011;57248;47.320;15.998;2024-03-07T04:28:49;3.38;;;0.93;;
69937;SDS011;57248;47.320;15.998;2024-03-07T04:31:21;3.90;;;1.10;;
69937;SDS011;57248;47.320;15.998;2024-03-07T04:33:53;4.45;;;0.88;;
69937;SDS011;57248;47.320;15.998;2024-03-07T04:36:25;2.70;;;0.43;;
69937;SDS011;57248;47.320;15.998;2024-03-07T04:38:57;2.63;;;0.75;;
69937;SDS011;57248;47.320;15.998;2024-03-07T04:41:29;3.05;;;0.55;;
69937;SDS011;57248;47.320;15.998;2024-03-07T04:44:02;3.42;;;1.15;;
69937;SDS011;57248;47.320;15.998;2024-03-07T04:46:33;5.78;;;2.05;;
69937;SDS011;57248;47.320;15.998;2024-03-07T04:49:05;3.57;;;0.97;;
69937;SDS011;57248;47.320;15.998;2024-03-07T04:51:37;3.28;;;0.70;;
69937;SDS011;57248;47.320;15.998;2024-03-07T04:54:10;3.58;;;0.82;;
69937;SDS011;57248;47.320;15.998;2024-03-07T04:56:36;4.63;;;0.80;;
69937;SDS011;57248;47.320;15.998;2024-03-07T04:59:08;4.68;;;0.50;;
69937;SDS011;57248;47.320;15.998;2024-03-07T05:01:40;1.90;;;0.52;;
69937;SDS011;57248;47.320;15.998;2024-03-07T05:04:12;3.53;;;0.68;;
69937;SDS011;57248;47.320;15.998;2024-03-07T05:06:45;1.83;;;0.30;;
69937;SDS011;57248;47.320;15.998;2024-03-07T05:09:26;2.35;;;0.30;;
69937;SDS011;57248;47.320;15.998;2024-03-07T05:12:00;1.85;;;0.40;;
69937;SDS011;57248;47.320;15.998;2024-03-07T05:14:33;1.77;;;0.43;;
69937;SDS011;57248;47.320;15.998;2024-03-07T05:17:04;5.18;;;1.35;;
69937;SDS011;57248;47.320;15.998;2024-03-07T05:19:36;2.47;;;0.63;;
69937;SDS011;57248;47.320;15.998;2024-03-07T05:22:08;1.40;;;0.32;;
69937;SDS011;57248;47.320;15.998;2024-03-07T05:24:45;3.00;;;0.35;;
69937;SDS011;57248;47.320;15.998;2024-03-07T05:27:11;3.53;;;0.67;;
69937;SDS011;57248;47.320;15.998;2024-03-07T05:29:43;2.42;;;0.68;;
69937;SDS011;57248;47.320;15.998;2024-03-07T05:32:25;3.50;;;0.77;;
69937;SDS011;57248;47.320;15.998;2024-03-07T05:34:57;3.25;;;0.88;;
69937;SDS011;57248;47.320;15.998;2024-03-07T05:37:30;2.10;;;0.30;;
69937;SDS011;57248;47.320;15.998;2024-03-07T05:40:03;5.50;;;1.33;;
69937;SDS011;57248;47.320;15.998;2024-03-07T05:42:35;5.35;;;1.70;;
69937;SDS011;57248;47.320;15.998;2024-03-07T05:45:01;3.00;;;1.17;;
69937;SDS011;57248;47.320;15.998;2024-03-07T05:47:34;3.35;;;0.88;;
69937;SDS011;57248;47.320;15.998;2024-03-07T05:49:59;2.17;;;0.85;;
69937;SDS011;57248;47.320;15.998;2024-03-07T05:52:32;4.90;;;1.88;;
69937;SDS011;57248;47.320;15.998;2024-03-07T05:55:05;3.30;;;1.17;;
69937;SDS011;57248;47.320;15.998;2024-03-07T05:57:44;3.55;;;0.80;;
69937;SDS011;57248;47.320;15.998;2024-03-07T06:00:16;1.83;;;0.77;;
69937;SDS011;57248;47.320;15.998;2024-03-07T06:02:58;3.97;;;1.35;;
69937;SDS011;57248;47.320;15.998;2024-03-07T06:05:30;4.50;;;1.58;;
69937;SDS011;57248;47.320;15.998;2024-03-07T06:08:02;1.83;;;0.53;;
69937;SDS011;57248;47.320;15.998;2024-03-07T06:10:43;6.00;;;1.27;;
69937;SDS011;57248;47.320;15.998;2024-03-07T06:13:19;2.78;;;0.50;;
69937;SDS011;57248;47.320;15.998;2024-03-07T06:15:50;4.63;;;1.27;;
69937;SDS011;57248;47.320;15.998;2024-03-07T06:18:24;3.28;;;0.82;;
69937;SDS011;57248;47.320;15.998;2024-03-07T06:20:55;2.10;;;0.70;;
69937;SDS011;57248;47.320;15.998;2024-03-07T06:23:28;5.72;;;0.93;;
69937;SDS011;57248;47.320;15.998;2024-03-07T06:26:01;5.03;;;1.48;;
69937;SDS011;57248;47.320;15.998;2024-03-07T06:28:39;4.78;;;0.93;;
69937;SDS011;57248;47.320;15.998;2024-03-07T06:31:12;4.40;;;1.40;;
69937;SDS011;57248;47.320;15.998;2024-03-07T06:33:44;5.97;;;1.70;;
69937;SDS011;57248;47.320;15.998;2024-03-07T06:36:17;3.45;;;0.98;;
69937;SDS011;57248;47.320;15.998;2024-03-07T06:38:42;5.00;;;0.80;;
69937;SDS011;57248;47.320;15.998;2024-03-07T06:41:15;2.33;;;0.73;;
69937;SDS011;57248;47.320;15.998;2024-03-07T06:43:47;2.50;;;0.57;;
69937;SDS011;57248;47.320;15.998;2024-03-07T06:46:20;4.20;;;0.80;;
69937;SDS011;57248;47.320;15.998;2024-03-07T06:48:53;4.15;;;0.82;;
69937;SDS011;57248;47.320;15.998;2024-03-07T06:51:28;6.15;;;1.10;;
69937;SDS011;57248;47.320;15.998;2024-03-07T06:53:59;3.87;;;1.13;;
69937;SDS011;57248;47.320;15.998;2024-03-07T06:56:31;3.75;;;1.08;;
69937;SDS011;57248;47.320;15.998;2024-03-07T06:59:04;5.75;;;0.93;;
69937;SDS011;57248;47.320;15.998;2024-03-07T07:01:36;3.85;;;1.02;;
69937;SDS011;57248;47.320;15.998;2024-03-07T07:04:09;6.53;;;1.40;;
69937;SDS011;57248;47.320;15.998;2024-03-07T07:06:40;4.57;;;0.87;;
69937;SDS011;57248;47.320;15.998;2024-03-07T07:09:15;5.00;;;1.67;;
69937;SDS011;57248;47.320;15.998;2024-03-07T07:11:54;2.80;;;0.73;;
69937;SDS011;57248;47.320;15.998;2024-03-07T07:14:27;4.30;;;0.98;;
69937;SDS011;57248;47.320;15.998;2024-03-07T07:17:00;3.80;;;1.23;;
69937;SDS011;57248;47.320;15.998;2024-03-07T07:19:25;5.80;;;1.37;;
69937;SDS011;57248;47.320;15.998;2024-03-07T07:21:58;6.97;;;1.80;;
69937;SDS011;57248;47.320;15.998;2024-03-07T07:24:30;4.87;;;1.10;;
69937;SDS011;57248;47.320;15.998;2024-03-07T07:27:05;4.95;;;0.90;;
69937;SDS011;57248;47.320;15.998;2024-03-07T07:29:40;3.78;;;0.80;;
69937;SDS011;57248;47.320;15.998;2024-03-07T07:32:13;4.53;;;0.90;;
69937;SDS011;57248;47.320;15.998;2024-03-07T07:34:47;3.80;;;0.80;;
69937;SDS011;57248;47.320;15.998;2024-03-07T07:37:20;4.27;;;1.00;;
69937;SDS011;57248;47.320;15.998;2024-03-07T07:39:52;5.78;;;1.20;;
69937;SDS011;57248;47.320;15.998;2024-03-07T07:42:24;3.20;;;0.80;;
69937;SDS011;57248;47.320;15.998;2024-03-07T07:44:55;5.40;;;1.35;;
69937;SDS011;57248;47.320;15.998;2024-03-07T07:47:28;5.20;;;0.60;;
69937;SDS011;57248;47.320;15.998;2024-03-07T07:50:00;4.23;;;0.80;;
69937;SDS011;57248;47.320;15.998;2024-03-07T07:52:32;3.70;;;0.85;;
69937;SDS011;57248;47.320;15.998;2024-03-07T07:55:08;3.90;;;1.38;;
69937;SDS011;57248;47.320;15.998;2024-03-07T07:57:47;3.58;;;1.00;;
69937;SDS011;57248;47.320;15.998;2024-03-07T08:00:15;3.55;;;0.65;;
69937;SDS011;57248;47.320;15.998;2024-03-07T08:05:46;3.33;;;0.70;;
69937;SDS011;57248;47.320;15.998;2024-03-07T08:08:20;4.47;;;1.08;;
69937;SDS011;57248;47.320;15.998;2024-03-07T08:11:09;3.33;;;1.17;;
69937;SDS011;57248;47.320;15.998;2024-03-07T08:13:44;5.38;;;1.63;;
69937;SDS011;57248;47.320;15.998;2024-03-07T08:16:12;4.53;;;1.67;;
69937;SDS011;57248;47.320;15.998;2024-03-07T08:18:45;5.18;;;1.73;;
69937;SDS011;57248;47.320;15.998;2024-03-07T08:21:17;5.07;;;2.05;;
69937;SDS011;57248;47.320;15.998;2024-03-07T08:23:49;4.72;;;1.65;;
69937;SDS011;57248;47.320;15.998;2024-03-07T08:26:21;4.90;;;1.83;;
69937;SDS011;57248;47.320;15.998;2024-03-07T08:28:53;4.37;;;1.37;;
69937;SDS011;57248;47.320;15.998;2024-03-07T08:31:24;5.22;;;1.85;;
69937;SDS011;57248;47.320;15.998;2024-03-07T08:33:58;3.60;;;1.58;;
69937;SDS011;57248;47.320;15.998;2024-03-07T08:36:31;4.70;;;2.00;;
69937;SDS011;57248;47.320;15.998;2024-03-07T08:39:03;4.47;;;1.77;;
69937;SDS011;57248;47.320;15.998;2024-03-07T08:41:36;4.03;;;1.47;;
69937;SDS011;57248;47.320;15.998;2024-03-07T08:44:13;3.53;;;1.60;;
69937;SDS011;57248;47.320;15.998;2024-03-07T08:46:45;4.10;;;1.45;;
69937;SDS011;57248;47.320;15.998;2024-03-07T08:49:17;6.80;;;2.25;;
69937;SDS011;57248;47.320;15.998;2024-03-07T08:51:49;5.18;;;1.98;;
69937;SDS011;57248;47.320;15.998;2024-03-07T08:54:14;4.57;;;1.83;;
69937;SDS011;57248;47.320;15.998;2024-03-07T08:56:47;6.25;;;2.40;;
69937;SDS011;57248;47.320;15.998;2024-03-07T08:59:21;4.32;;;1.88;;
69937;SDS011;57248;47.320;15.998;2024-03-07T09:01:53;5.03;;;2.72;;
69937;SDS011;57248;47.320;15.998;2024-03-07T09:04:25;5.43;;;2.70;;
69937;SDS011;57248;47.320;15.998;2024-03-07T09:06:57;5.37;;;3.07;;
69937;SDS011;57248;47.320;15.998;2024-03-07T09:09:29;5.85;;;3.58;;
69937;SDS011;57248;47.320;15.998;2024-03-07T09:12:01;4.93;;;3.13;;
69937;SDS011;57248;47.320;15.998;2024-03-07T09:14:33;5.57;;;3.33;;
69937;SDS011;57248;47.320;15.998;2024-03-07T09:17:05;5.95;;;3.20;;
69937;SDS011;57248;47.320;15.998;2024-03-07T09:19:37;5.50;;;3.70;;
69937;SDS011;57248;47.320;15.998;2024-03-07T09:22:09;5.35;;;3.80;;
69937;SDS011;57248;47.320;15.998;2024-03-07T09:24:34;5.17;;;3.20;;
69937;SDS011;57248;47.320;15.998;2024-03-07T09:27:09;5.53;;;3.90;;
69937;SDS011;57248;47.320;15.998;2024-03-07T09:29:41;6.95;;;3.70;;
69937;SDS011;57248;47.320;15.998;2024-03-07T09:32:13;5.70;;;3.60;;
69937;SDS011;57248;47.320;15.998;2024-03-07T09:34:46;6.53;;;3.50;;
69937;SDS011;57248;47.320;15.998;2024-03-07T09:37:18;6.77;;;3.60;;
69937;SDS011;57248;47.320;15.998;2024-03-07T09:39:53;4.97;;;2.92;;
69937;SDS011;57248;47.320;15.998;2024-03-07T09:42:26;6.85;;;3.00;;
69937;SDS011;57248;47.320;15.998;2024-03-07T09:45:02;4.90;;;2.72;;
69937;SDS011;57248;47.320;15.998;2024-03-07T09:47:35;6.25;;;2.60;;
69937;SDS011;57248;47.320;15.998;2024-03-07T09:50:08;6.37;;;2.37;;
69937;SDS011;57248;47.320;15.998;2024-03-07T09:52:41;4.70;;;2.08;;
69937;SDS011;57248;47.320;15.998;2024-03-07T09:55:14;6.55;;;2.00;;
69937;SDS011;57248;47.320;15.998;2024-03-07T09:57:47;4.63;;;1.50;;
69937;SDS011;57248;47.320;15.998;2024-03-07T10:00:21;4.38;;;1.42;;
69937;SDS011;57248;47.320;15.998;2024-03-07T10:03:01;2.57;;;0.70;;
69937;SDS011;57248;47.320;15.998;2024-03-07T10:05:40;2.67;;;0.80;;
69937;SDS011;57248;47.320;15.998;2024-03-07T10:08:13;4.97;;;1.42;;
69937;SDS011;57248;47.320;15.998;2024-03-07T10:10:46;4.93;;;1.30;;
69937;SDS011;57248;47.320;15.998;2024-03-07T10:13:32;5.50;;;1.60;;
69937;SDS011;57248;47.320;15.998;2024-03-07T10:16:05;5.47;;;1.23;;
69937;SDS011;57248;47.320;15.998;2024-03-07T10:18:33;3.13;;;1.23;;
69937;SDS011;57248;47.320;15.998;2024-03-07T10:21:14;4.65;;;1.67;;
69937;SDS011;57248;47.320;15.998;2024-03-07T10:23:49;4.47;;;1.70;;
69937;SDS011;57248;47.320;15.998;2024-03-07T10:26:23;5.07;;;1.95;;
69937;SDS011;57248;47.320;15.998;2024-03-07T10:28:55;4.43;;;1.70;;
69937;SDS011;57248;47.320;15.998;2024-03-07T10:31:28;3.55;;;1.48;;
69937;SDS011;57248;47.320;15.998;2024-03-07T10:34:02;4.88;;;1.48;;
69937;SDS011;57248;47.320;15.998;2024-03-07T10:36:35;4.47;;;1.73;;
69937;SDS011;57248;47.320;15.998;2024-03-07T10:39:07;4.63;;;1.85;;
69937;SDS011;57248;47.320;15.998;2024-03-07T10:41:53;4.00;;;1.47;;
69937;SDS011;57248;47.320;15.998;2024-03-07T10:44:29;4.53;;;1.40;;
69937;SDS011;57248;47.320;15.998;2024-03-07T10:47:02;4.05;;;1.35;;
69937;SDS011;57248;47.320;15.998;2024-03-07T10:49:36;4.20;;;1.55;;
69937;SDS011;57248;47.320;15.998;2024-03-07T10:52:17;4.30;;;1.23;;
69937;SDS011;57248;47.320;15.998;2024-03-07T10:55:08;5.00;;;1.43;;
69937;SDS011;57248;47.320;15.998;2024-03-07T10:57:51;3.95;;;1.42;;
69937;SDS011;57248;47.320;15.998;2024-03-07T11:00:34;4.03;;;1.38;;
69937;SDS011;57248;47.320;15.998;2024-03-07T11:03:08;5.53;;;1.50;;
69937;SDS011;57248;47.320;15.998;2024-03-07T11:05:42;4.72;;;1.63;;
69937;SDS011;57248;47.320;15.998;2024-03-07T11:08:15;5.90;;;2.03;;
69937;SDS011;57248;47.320;15.998;2024-03-07T11:10:50;4.10;;;1.48;;
69937;SDS011;57248;47.320;15.998;2024-03-07T11:13:29;3.33;;;1.10;;
69937;SDS011;57248;47.320;15.998;2024-03-07T11:16:02;4.88;;;1.48;;
69937;SDS011;57248;47.320;15.998;2024-03-07T11:18:37;4.72;;;1.45;;
69937;SDS011;57248;47.320;15.998;2024-03-07T11:21:40;4.70;;;1.57;;
69937;SDS011;57248;47.320;15.998;2024-03-07T11:24:23;2.70;;;0.98;;
69937;SDS011;57248;47.320;15.998;2024-03-07T11:27:04;3.17;;;1.17;;
69937;SDS011;57248;47.320;15.998;2024-03-07T11:32:15;5.22;;;1.38;;
69937;SDS011;57248;47.320;15.998;2024-03-07T11:34:48;4.30;;;1.10;;
69937;SDS011;57248;47.320;15.998;2024-03-07T11:37:37;3.00;;;1.08;;
69937;SDS011;57248;47.320;15.998;2024-03-07T11:43:03;4.45;;;1.83;;
69937;SDS011;57248;47.320;15.998;2024-03-07T11:45:39;5.03;;;2.38;;
69937;SDS011;57248;47.320;15.998;2024-03-07T11:48:16;4.77;;;1.97;;
69937;SDS011;57248;47.320;15.998;2024-03-07T11:50:51;4.05;;;2.08;;
69937;SDS011;57248;47.320;15.998;2024-03-07T11:53:23;4.13;;;2.42;;
69937;SDS011;57248;47.320;15.998;2024-03-07T11:56:04;4.35;;;2.47;;
69937;SDS011;57248;47.320;15.998;2024-03-07T11:58:41;4.32;;;2.50;;
69937;SDS011;57248;47.320;15.998;2024-03-07T12:01:13;3.70;;;2.00;;
69937;SDS011;57248;47.320;15.998;2024-03-07T12:03:45;3.38;;;1.90;;
69937;SDS011;57248;47.320;15.998;2024-03-07T12:06:37;3.92;;;2.10;;
69937;SDS011;57248;47.320;15.998;2024-03-07T12:09:09;3.72;;;1.60;;
69937;SDS011;57248;47.320;15.998;2024-03-07T12:11:55;5.72;;;1.70;;
69937;SDS011;57248;47.320;15.998;2024-03-07T12:14:27;4.23;;;2.00;;
69937;SDS011;57248;47.320;15.998;2024-03-07T12:17:03;4.85;;;2.20;;
69937;SDS011;57248;47.320;15.998;2024-03-07T12:19:38;5.38;;;2.30;;
69937;SDS011;57248;47.320;15.998;2024-03-07T12:22:11;3.17;;;1.80;;
69937;SDS011;57248;47.320;15.998;2024-03-07T12:24:47;4.20;;;1.80;;
69937;SDS011;57248;47.320;15.998;2024-03-07T12:27:19;3.57;;;1.70;;
69937;SDS011;57248;47.320;15.998;2024-03-07T12:29:52;3.83;;;1.35;;
69937;SDS011;57248;47.320;15.998;2024-03-07T12:32:25;3.35;;;1.10;;
69937;SDS011;57248;47.320;15.998;2024-03-07T12:34:58;4.07;;;1.08;;
69937;SDS011;57248;47.320;15.998;2024-03-07T12:37:34;3.75;;;1.50;;
69937;SDS011;57248;47.320;15.998;2024-03-07T12:40:13;3.77;;;1.80;;
69937;SDS011;57248;47.320;15.998;2024-03-07T12:42:51;2.90;;;0.90;;
69937;SDS011;57248;47.320;15.998;2024-03-07T12:45:25;2.75;;;1.10;;
69937;SDS011;57248;47.320;15.998;2024-03-07T12:48:00;4.07;;;1.08;;
69937;SDS011;57248;47.320;15.998;2024-03-07T12:50:36;4.07;;;0.80;;
69937;SDS011;57248;47.320;15.998;2024-03-07T12:53:14;3.77;;;0.87;;
69937;SDS011;57248;47.320;15.998;2024-03-07T12:55:46;2.40;;;0.60;;
69937;SDS011;57248;47.320;15.998;2024-03-07T12:58:18;3.33;;;0.80;;
69937;SDS011;57248;47.320;15.998;2024-03-07T13:00:53;2.90;;;0.55;;
69937;SDS011;57248;47.320;15.998;2024-03-07T13:03:27;2.53;;;0.80;;
69937;SDS011;57248;47.320;15.998;2024-03-07T13:06:01;3.30;;;0.70;;
69937;SDS011;57248;47.320;15.998;2024-03-07T13:08:33;3.35;;;1.17;;
69937;SDS011;57248;47.320;15.998;2024-03-07T13:11:06;2.72;;;0.60;;
69937;SDS011;57248;47.320;15.998;2024-03-07T13:13:45;2.72;;;0.57;;
69937;SDS011;57248;47.320;15.998;2024-03-07T13:16:18;2.55;;;0.88;;
69937;SDS011;57248;47.320;15.998;2024-03-07T13:18:51;4.83;;;1.00;;
69937;SDS011;57248;47.320;15.998;2024-03-07T13:21:25;2.65;;;0.65;;
69937;SDS011;57248;47.320;15.998;2024-03-07T13:24:18;2.92;;;0.73;;
69937;SDS011;57248;47.320;15.998;2024-03-07T13:26:45;4.32;;;0.85;;
69937;SDS011;57248;47.320;15.998;2024-03-07T13:29:20;3.97;;;0.70;;
69937;SDS011;57248;47.320;15.998;2024-03-07T13:31:59;3.37;;;0.77;;
69937;SDS011;57248;47.320;15.998;2024-03-07T13:34:31;2.65;;;0.50;;
69937;SDS011;57248;47.320;15.998;2024-03-07T13:37:00;4.00;;;0.75;;
69937;SDS011;57248;47.320;15.998;2024-03-07T13:39:33;3.40;;;0.77;;
69937;SDS011;57248;47.320;15.998;2024-03-07T13:42:05;4.13;;;1.33;;
69937;SDS011;57248;47.320;15.998;2024-03-07T13:44:37;3.30;;;0.50;;
69937;SDS011;57248;47.320;15.998;2024-03-07T13:47:12;2.85;;;0.68;;
69937;SDS011;57248;47.320;15.998;2024-03-07T13:49:44;3.60;;;0.55;;
69937;SDS011;57248;47.320;15.998;2024-03-07T13:52:16;4.78;;;0.80;;
69937;SDS011;57248;47.320;15.998;2024-03-07T13:54:50;4.00;;;1.20;;
69937;SDS011;57248;47.320;15.998;2024-03-07T13:57:44;5.77;;;1.30;;
69937;SDS011;57248;47.320;15.998;2024-03-07T14:00:38;4.20;;;1.05;;
69937;SDS011;57248;47.320;15.998;2024-03-07T14:03:22;7.00;;;1.02;;
69937;SDS011;57248;47.320;15.998;2024-03-07T14:06:09;4.15;;;0.90;;
69937;SDS011;57248;47.320;15.998;2024-03-07T14:08:56;6.60;;;1.35;;
69937;SDS011;57248;47.320;15.998;2024-03-07T14:32:46;6.05;;;1.20;;
69937;SDS011;57248;47.320;15.998;2024-03-07T14:40:46;3.47;;;0.73;;
69937;SDS011;57248;47.320;15.998;2024-03-07T14:43:21;3.85;;;1.00;;
69937;SDS011;57248;47.320;15.998;2024-03-07T14:45:55;5.60;;;1.50;;
69937;SDS011;57248;47.320;15.998;2024-03-07T14:48:31;3.38;;;1.02;;
69937;SDS011;57248;47.320;15.998;2024-03-07T14:51:04;4.13;;;0.90;;
69937;SDS011;57248;47.320;15.998;2024-03-07T14:53:39;3.50;;;0.77;;
69937;SDS011;57248;47.320;15.998;2024-03-07T14:56:14;2.33;;;0.50;;
69937;SDS011;57248;47.320;15.998;2024-03-07T14:58:46;3.95;;;1.05;;
69937;SDS011;57248;47.320;15.998;2024-03-07T15:01:12;3.97;;;1.17;;
69937;SDS011;57248;47.320;15.998;2024-03-07T15:03:45;6.00;;;1.00;;
69937;SDS011;57248;47.320;15.998;2024-03-07T15:06:17;5.05;;;1.63;;
69937;SDS011;57248;47.320;15.998;2024-03-07T15:08:49;5.55;;;0.77;;
69937;SDS011;57248;47.320;15.998;2024-03-07T15:11:25;3.10;;;0.75;;
69937;SDS011;57248;47.320;15.998;2024-03-07T15:14:12;3.42;;;1.00;;
69937;SDS011;57248;47.320;15.998;2024-03-07T15:16:45;5.77;;;1.20;;
69937;SDS011;57248;47.320;15.998;2024-03-07T15:19:18;6.07;;;1.25;;
69937;SDS011;57248;47.320;15.998;2024-03-07T15:21:50;5.82;;;1.02;;
69937;SDS011;57248;47.320;15.998;2024-03-07T15:24:25;3.53;;;1.10;;
69937;SDS011;57248;47.320;15.998;2024-03-07T15:26:57;5.03;;;1.15;;
69937;SDS011;57248;47.320;15.998;2024-03-07T15:29:30;3.53;;;0.80;;
69937;SDS011;57248;47.320;15.998;2024-03-07T15:32:03;3.20;;;0.52;;
69937;SDS011;57248;47.320;15.998;2024-03-07T15:34:38;5.88;;;1.73;;
69937;SDS011;57248;47.320;15.998;2024-03-07T15:37:17;3.13;;;0.80;;
69937;SDS011;57248;47.320;15.998;2024-03-07T15:39:53;4.18;;;1.40;;
69937;SDS011;57248;47.320;15.998;2024-03-07T15:42:26;4.63;;;1.07;;
69937;SDS011;57248;47.320;15.998;2024-03-07T15:44:52;4.45;;;1.15;;
69937;SDS011;57248;47.320;15.998;2024-03-07T15:47:25;2.92;;;0.70;;